sensor_id;sensor_type;location;lat;lon;timestamp;P1;durP1;ratioP1;P2;durP2;ratioP2
21274;SDS011;36472;52.170;20.884;2023-03-03T00:01:47;106.47;;;53.30;;
21274;SDS011;36472;52.170;20.884;2023-03-03T00:04:16;101.80;;;51.63;;
21274;SDS011;36472;52.170;20.884;2023-03-03T00:06:45;105.03;;;53.63;;
21274;SDS011;36472;52.170;20.884;2023-03-03T00:09:14;103.13;;;52.33;;
21274;SDS011;36472;52.170;20.884;2023-03-03T00:11:45;101.55;;;50.55;;
21274;SDS011;36472;52.170;20.884;2023-03-03T00:14:21;99.60;;;52.25;;
21274;SDS011;36472;52.170;20.884;2023-03-03T00:16:56;99.20;;;48.67;;
21274;SDS011;36472;52.170;20.884;2023-03-03T00:19:28;95.45;;;52.10;;
21274;SDS011;36472;52.170;20.884;2023-03-03T00:22:06;95.85;;;51.58;;
21274;SDS011;36472;52.170;20.884;2023-03-03T00:24:49;95.03;;;50.27;;
21274;SDS011;36472;52.170;20.884;2023-03-03T00:27:22;98.82;;;49.95;;
21274;SDS011;36472;52.170;20.884;2023-03-03T00:29:58;105.10;;;51.53;;
21274;SDS011;36472;52.170;20.884;2023-03-03T00:32:30;104.38;;;51.33;;
21274;SDS011;36472;52.170;20.884;2023-03-03T00:35:22;100.33;;;50.30;;
21274;SDS011;36472;52.170;20.884;2023-03-03T00:37:55;97.53;;;49.87;;
21274;SDS011;36472;52.170;20.884;2023-03-03T00:40:26;97.77;;;48.97;;
21274;SDS011;36472;52.170;20.884;2023-03-03T00:43:12;97.57;;;48.60;;
21274;SDS011;36472;52.170;20.884;2023-03-03T00:45:47;95.00;;;48.28;;
21274;SDS011;36472;52.170;20.884;2023-03-03T00:48:20;98.55;;;47.63;;
21274;SDS011;36472;52.170;20.884;2023-03-03T00:50:53;101.60;;;49.65;;
21274;SDS011;36472;52.170;20.884;2023-03-03T00:53:28;98.45;;;48.45;;
21274;SDS011;36472;52.170;20.884;2023-03-03T00:55:58;99.90;;;48.15;;
21274;SDS011;36472;52.170;20.884;2023-03-03T00:58:28;94.10;;;47.15;;
21274;SDS011;36472;52.170;20.884;2023-03-03T01:00:57;88.53;;;47.47;;
21274;SDS011;36472;52.170;20.884;2023-03-03T01:03:36;88.88;;;45.38;;
21274;SDS011;36472;52.170;20.884;2023-03-03T01:06:06;90.22;;;46.30;;
21274;SDS011;36472;52.170;20.884;2023-03-03T01:08:35;88.95;;;44.95;;
21274;SDS011;36472;52.170;20.884;2023-03-03T01:11:06;91.07;;;46.13;;
21274;SDS011;36472;52.170;20.884;2023-03-03T01:13:44;94.80;;;47.30;;
21274;SDS011;36472;52.170;20.884;2023-03-03T01:16:16;94.03;;;47.27;;
21274;SDS011;36472;52.170;20.884;2023-03-03T01:18:46;90.30;;;46.70;;
21274;SDS011;36472;52.170;20.884;2023-03-03T01:21:15;93.40;;;45.15;;
21274;SDS011;36472;52.170;20.884;2023-03-03T01:23:44;90.13;;;45.17;;
21274;SDS011;36472;52.170;20.884;2023-03-03T01:56:18;84.90;;;42.30;;
21274;SDS011;36472;52.170;20.884;2023-03-03T01:58:48;88.00;;;43.50;;
21274;SDS011;36472;52.170;20.884;2023-03-03T02:01:24;85.17;;;43.70;;
21274;SDS011;36472;52.170;20.884;2023-03-03T02:03:57;86.03;;;44.23;;
21274;SDS011;36472;52.170;20.884;2023-03-03T02:06:28;80.93;;;41.95;;
21274;SDS011;36472;52.170;20.884;2023-03-03T02:09:05;76.97;;;41.03;;
21274;SDS011;36472;52.170;20.884;2023-03-03T02:11:44;80.10;;;42.60;;
21274;SDS011;36472;52.170;20.884;2023-03-03T02:14:18;83.23;;;41.97;;
21274;SDS011;36472;52.170;20.884;2023-03-03T02:16:47;85.28;;;44.03;;
21274;SDS011;36472;52.170;20.884;2023-03-03T02:19:19;81.65;;;42.65;;
21274;SDS011;36472;52.170;20.884;2023-03-03T02:22:00;83.10;;;42.87;;
21274;SDS011;36472;52.170;20.884;2023-03-03T02:24:32;78.50;;;41.20;;
21274;SDS011;36472;52.170;20.884;2023-03-03T02:27:07;79.30;;;42.40;;
21274;SDS011;36472;52.170;20.884;2023-03-03T02:29:37;79.75;;;40.15;;
21274;SDS011;36472;52.170;20.884;2023-03-03T02:32:06;77.67;;;40.63;;
21274;SDS011;36472;52.170;20.884;2023-03-03T02:34:47;75.17;;;40.20;;
21274;SDS011;36472;52.170;20.884;2023-03-03T02:37:19;83.87;;;41.27;;
21274;SDS011;36472;52.170;20.884;2023-03-03T02:39:48;82.07;;;39.80;;
21274;SDS011;36472;52.170;20.884;2023-03-03T02:42:18;77.27;;;41.63;;
21274;SDS011;36472;52.170;20.884;2023-03-03T02:44:57;78.53;;;40.13;;
21274;SDS011;36472;52.170;20.884;2023-03-03T02:47:26;79.80;;;41.40;;
21274;SDS011;36472;52.170;20.884;2023-03-03T02:49:55;73.77;;;39.83;;
21274;SDS011;36472;52.170;20.884;2023-03-03T02:52:24;79.10;;;41.47;;
21274;SDS011;36472;52.170;20.884;2023-03-03T02:54:53;73.30;;;40.57;;
21274;SDS011;36472;52.170;20.884;2023-03-03T02:57:23;74.70;;;40.60;;
21274;SDS011;36472;52.170;20.884;2023-03-03T02:59:53;74.22;;;40.58;;
21274;SDS011;36472;52.170;20.884;2023-03-03T03:02:22;77.87;;;38.93;;
21274;SDS011;36472;52.170;20.884;2023-03-03T03:04:54;76.13;;;39.38;;
21274;SDS011;36472;52.170;20.884;2023-03-03T03:07:24;79.37;;;40.23;;
21274;SDS011;36472;52.170;20.884;2023-03-03T03:09:53;84.40;;;41.27;;
21274;SDS011;36472;52.170;20.884;2023-03-03T03:12:24;76.97;;;40.20;;
21274;SDS011;36472;52.170;20.884;2023-03-03T03:14:56;79.37;;;39.93;;
21274;SDS011;36472;52.170;20.884;2023-03-03T03:17:25;77.47;;;40.13;;
21274;SDS011;36472;52.170;20.884;2023-03-03T03:19:54;79.43;;;41.23;;
21274;SDS011;36472;52.170;20.884;2023-03-03T03:22:23;70.07;;;40.13;;
21274;SDS011;36472;52.170;20.884;2023-03-03T03:24:53;77.13;;;39.67;;
21274;SDS011;36472;52.170;20.884;2023-03-03T03:27:22;72.65;;;37.78;;
21274;SDS011;36472;52.170;20.884;2023-03-03T03:29:53;72.10;;;37.17;;
21274;SDS011;36472;52.170;20.884;2023-03-03T03:32:22;68.83;;;36.40;;
21274;SDS011;36472;52.170;20.884;2023-03-03T03:34:52;74.70;;;39.25;;
21274;SDS011;36472;52.170;20.884;2023-03-03T03:37:21;72.57;;;36.40;;
21274;SDS011;36472;52.170;20.884;2023-03-03T03:39:50;76.53;;;38.65;;
21274;SDS011;36472;52.170;20.884;2023-03-03T03:42:19;67.80;;;36.20;;
21274;SDS011;36472;52.170;20.884;2023-03-03T03:44:50;70.33;;;36.43;;
21274;SDS011;36472;52.170;20.884;2023-03-03T03:47:20;69.25;;;36.67;;
21274;SDS011;36472;52.170;20.884;2023-03-03T03:49:49;64.60;;;35.47;;
21274;SDS011;36472;52.170;20.884;2023-03-03T03:52:19;67.27;;;34.87;;
21274;SDS011;36472;52.170;20.884;2023-03-03T03:54:48;68.97;;;34.17;;
21274;SDS011;36472;52.170;20.884;2023-03-03T03:57:17;71.38;;;37.63;;
21274;SDS011;36472;52.170;20.884;2023-03-03T03:59:48;64.35;;;34.58;;
21274;SDS011;36472;52.170;20.884;2023-03-03T04:02:18;68.03;;;36.30;;
21274;SDS011;36472;52.170;20.884;2023-03-03T04:04:48;61.90;;;34.87;;
21274;SDS011;36472;52.170;20.884;2023-03-03T04:07:16;72.20;;;37.60;;
21274;SDS011;36472;52.170;20.884;2023-03-03T04:09:46;69.63;;;38.03;;
21274;SDS011;36472;52.170;20.884;2023-03-03T04:12:16;69.00;;;34.93;;
21274;SDS011;36472;52.170;20.884;2023-03-03T04:14:46;66.15;;;35.67;;
21274;SDS011;36472;52.170;20.884;2023-03-03T04:17:15;68.82;;;36.15;;
21274;SDS011;36472;52.170;20.884;2023-03-03T04:19:47;68.80;;;36.05;;
21274;SDS011;36472;52.170;20.884;2023-03-03T04:22:16;73.65;;;37.45;;
21274;SDS011;36472;52.170;20.884;2023-03-03T04:24:45;64.15;;;33.67;;
21274;SDS011;36472;52.170;20.884;2023-03-03T04:27:16;61.78;;;34.03;;
21274;SDS011;36472;52.170;20.884;2023-03-03T04:29:45;65.25;;;33.83;;
21274;SDS011;36472;52.170;20.884;2023-03-03T04:32:15;65.15;;;34.15;;
21274;SDS011;36472;52.170;20.884;2023-03-03T04:34:47;64.57;;;34.30;;
21274;SDS011;36472;52.170;20.884;2023-03-03T04:37:33;62.60;;;34.80;;
21274;SDS011;36472;52.170;20.884;2023-03-03T04:40:04;69.37;;;36.73;;
21274;SDS011;36472;52.170;20.884;2023-03-03T04:42:38;65.60;;;35.10;;
21274;SDS011;36472;52.170;20.884;2023-03-03T04:45:09;68.25;;;37.05;;
21274;SDS011;36472;52.170;20.884;2023-03-03T04:47:39;69.15;;;34.55;;
21274;SDS011;36472;52.170;20.884;2023-03-03T04:50:10;65.82;;;36.00;;
21274;SDS011;36472;52.170;20.884;2023-03-03T04:52:40;67.57;;;35.53;;
21274;SDS011;36472;52.170;20.884;2023-03-03T04:55:11;73.55;;;35.83;;
21274;SDS011;36472;52.170;20.884;2023-03-03T04:57:40;71.35;;;37.15;;
21274;SDS011;36472;52.170;20.884;2023-03-03T05:00:09;69.47;;;37.75;;
21274;SDS011;36472;52.170;20.884;2023-03-03T05:02:40;72.97;;;38.30;;
21274;SDS011;36472;52.170;20.884;2023-03-03T05:05:13;71.05;;;38.22;;
21274;SDS011;36472;52.170;20.884;2023-03-03T05:07:42;72.72;;;36.80;;
21274;SDS011;36472;52.170;20.884;2023-03-03T05:10:11;71.18;;;37.67;;
21274;SDS011;36472;52.170;20.884;2023-03-03T05:12:40;64.13;;;36.88;;
21274;SDS011;36472;52.170;20.884;2023-03-03T05:15:10;72.35;;;37.80;;
21274;SDS011;36472;52.170;20.884;2023-03-03T05:17:39;75.78;;;37.13;;
21274;SDS011;36472;52.170;20.884;2023-03-03T05:20:09;71.45;;;37.78;;
21274;SDS011;36472;52.170;20.884;2023-03-03T05:22:41;73.23;;;38.70;;
21274;SDS011;36472;52.170;20.884;2023-03-03T05:25:10;77.80;;;39.13;;
21274;SDS011;36472;52.170;20.884;2023-03-03T05:27:39;77.35;;;39.78;;
21274;SDS011;36472;52.170;20.884;2023-03-03T05:30:09;73.80;;;38.72;;
21274;SDS011;36472;52.170;20.884;2023-03-03T05:32:39;83.38;;;40.63;;
21274;SDS011;36472;52.170;20.884;2023-03-03T05:35:09;83.17;;;40.20;;
21274;SDS011;36472;52.170;20.884;2023-03-03T05:37:37;84.20;;;40.13;;
21274;SDS011;36472;52.170;20.884;2023-03-03T05:40:12;88.10;;;43.05;;
21274;SDS011;36472;52.170;20.884;2023-03-03T05:42:41;87.57;;;41.47;;
21274;SDS011;36472;52.170;20.884;2023-03-03T05:45:11;87.18;;;43.00;;
21274;SDS011;36472;52.170;20.884;2023-03-03T05:47:40;87.88;;;41.40;;
21274;SDS011;36472;52.170;20.884;2023-03-03T05:50:09;85.10;;;41.35;;
21274;SDS011;36472;52.170;20.884;2023-03-03T05:52:39;91.28;;;42.72;;
21274;SDS011;36472;52.170;20.884;2023-03-03T05:55:08;87.00;;;42.20;;
21274;SDS011;36472;52.170;20.884;2023-03-03T05:57:39;92.03;;;42.15;;
21274;SDS011;36472;52.170;20.884;2023-03-03T06:00:09;87.70;;;42.05;;
21274;SDS011;36472;52.170;20.884;2023-03-03T06:02:40;88.70;;;42.97;;
21274;SDS011;36472;52.170;20.884;2023-03-03T06:05:10;89.45;;;43.22;;
21274;SDS011;36472;52.170;20.884;2023-03-03T06:07:39;92.15;;;43.45;;
21274;SDS011;36472;52.170;20.884;2023-03-03T06:10:08;90.00;;;43.03;;
21274;SDS011;36472;52.170;20.884;2023-03-03T06:12:41;86.55;;;42.20;;
21274;SDS011;36472;52.170;20.884;2023-03-03T06:15:11;87.30;;;40.10;;
21274;SDS011;36472;52.170;20.884;2023-03-03T06:17:39;84.97;;;41.45;;
21274;SDS011;36472;52.170;20.884;2023-03-03T06:20:10;83.68;;;40.65;;
21274;SDS011;36472;52.170;20.884;2023-03-03T06:22:39;72.95;;;36.50;;
21274;SDS011;36472;52.170;20.884;2023-03-03T06:25:08;78.10;;;38.00;;
21274;SDS011;36472;52.170;20.884;2023-03-03T06:27:37;73.70;;;37.80;;
21274;SDS011;36472;52.170;20.884;2023-03-03T06:30:09;78.00;;;39.90;;
21274;SDS011;36472;52.170;20.884;2023-03-03T06:32:39;83.80;;;41.10;;
21274;SDS011;36472;52.170;20.884;2023-03-03T06:35:09;75.37;;;38.23;;
21274;SDS011;36472;52.170;20.884;2023-03-03T06:37:38;78.60;;;39.30;;
21274;SDS011;36472;52.170;20.884;2023-03-03T06:40:08;77.97;;;37.67;;
21274;SDS011;36472;52.170;20.884;2023-03-03T06:42:38;75.20;;;37.03;;
21274;SDS011;36472;52.170;20.884;2023-03-03T06:45:09;74.75;;;36.20;;
21274;SDS011;36472;52.170;20.884;2023-03-03T06:47:39;74.80;;;36.83;;
21274;SDS011;36472;52.170;20.884;2023-03-03T06:50:09;74.97;;;36.33;;
21274;SDS011;36472;52.170;20.884;2023-03-03T06:52:39;71.47;;;36.35;;
21274;SDS011;36472;52.170;20.884;2023-03-03T06:55:12;71.78;;;34.65;;
21274;SDS011;36472;52.170;20.884;2023-03-03T06:57:49;72.15;;;35.72;;
21274;SDS011;36472;52.170;20.884;2023-03-03T07:00:24;70.13;;;33.20;;
21274;SDS011;36472;52.170;20.884;2023-03-03T07:02:57;73.75;;;33.38;;
21274;SDS011;36472;52.170;20.884;2023-03-03T07:05:29;66.75;;;32.95;;
21274;SDS011;36472;52.170;20.884;2023-03-03T07:08:00;63.97;;;32.28;;
21274;SDS011;36472;52.170;20.884;2023-03-03T07:10:29;69.30;;;32.50;;
21274;SDS011;36472;52.170;20.884;2023-03-03T07:13:00;65.75;;;32.78;;
21274;SDS011;36472;52.170;20.884;2023-03-03T07:15:47;67.82;;;32.90;;
21274;SDS011;36472;52.170;20.884;2023-03-03T07:18:25;66.72;;;31.23;;
21274;SDS011;36472;52.170;20.884;2023-03-03T07:21:06;58.03;;;30.35;;
21274;SDS011;36472;52.170;20.884;2023-03-03T07:23:45;68.97;;;31.00;;
21274;SDS011;36472;52.170;20.884;2023-03-03T07:26:17;63.78;;;30.85;;
21274;SDS011;36472;52.170;20.884;2023-03-03T07:28:52;69.97;;;30.05;;
21274;SDS011;36472;52.170;20.884;2023-03-03T07:31:29;69.95;;;32.25;;
21274;SDS011;36472;52.170;20.884;2023-03-03T07:34:04;74.65;;;33.25;;
21274;SDS011;36472;52.170;20.884;2023-03-03T07:36:47;75.57;;;32.78;;
21274;SDS011;36472;52.170;20.884;2023-03-03T07:39:24;71.55;;;30.35;;
21274;SDS011;36472;52.170;20.884;2023-03-03T07:42:05;64.13;;;30.83;;
21274;SDS011;36472;52.170;20.884;2023-03-03T07:44:54;65.65;;;30.15;;
21274;SDS011;36472;52.170;20.884;2023-03-03T07:47:27;65.20;;;30.42;;
21274;SDS011;36472;52.170;20.884;2023-03-03T07:50:09;66.43;;;30.40;;
21274;SDS011;36472;52.170;20.884;2023-03-03T07:52:47;62.83;;;29.45;;
21274;SDS011;36472;52.170;20.884;2023-03-03T07:55:26;64.80;;;30.92;;
21274;SDS011;36472;52.170;20.884;2023-03-03T07:58:13;59.38;;;27.60;;
21274;SDS011;36472;52.170;20.884;2023-03-03T08:04:12;74.45;;;32.45;;
21274;SDS011;36472;52.170;20.884;2023-03-03T08:06:47;70.32;;;31.30;;
21274;SDS011;36472;52.170;20.884;2023-03-03T08:09:28;77.18;;;34.08;;
21274;SDS011;36472;52.170;20.884;2023-03-03T08:15:14;77.05;;;32.95;;
21274;SDS011;36472;52.170;20.884;2023-03-03T08:17:50;76.65;;;33.22;;
21274;SDS011;36472;52.170;20.884;2023-03-03T08:20:44;67.25;;;32.72;;
21274;SDS011;36472;52.170;20.884;2023-03-03T08:23:16;73.05;;;32.80;;
21274;SDS011;36472;52.170;20.884;2023-03-03T08:25:48;58.95;;;27.15;;
21274;SDS011;36472;52.170;20.884;2023-03-03T08:28:19;65.50;;;29.02;;
21274;SDS011;36472;52.170;20.884;2023-03-03T08:30:49;59.20;;;28.10;;
21274;SDS011;36472;52.170;20.884;2023-03-03T08:33:34;53.88;;;27.55;;
21274;SDS011;36472;52.170;20.884;2023-03-03T08:36:06;57.85;;;26.92;;
21274;SDS011;36472;52.170;20.884;2023-03-03T08:38:36;63.60;;;29.02;;
21274;SDS011;36472;52.170;20.884;2023-03-03T08:41:05;61.10;;;28.33;;
21274;SDS011;36472;52.170;20.884;2023-03-03T08:43:34;59.90;;;27.98;;
21274;SDS011;36472;52.170;20.884;2023-03-03T08:46:04;60.97;;;27.65;;
21274;SDS011;36472;52.170;20.884;2023-03-03T08:48:36;59.53;;;28.42;;
21274;SDS011;36472;52.170;20.884;2023-03-03T08:51:07;58.30;;;29.10;;
21274;SDS011;36472;52.170;20.884;2023-03-03T08:53:36;62.38;;;30.80;;
21274;SDS011;36472;52.170;20.884;2023-03-03T08:56:05;59.75;;;26.42;;
21274;SDS011;36472;52.170;20.884;2023-03-03T08:58:34;56.55;;;27.10;;
21274;SDS011;36472;52.170;20.884;2023-03-03T09:01:03;59.33;;;27.25;;
21274;SDS011;36472;52.170;20.884;2023-03-03T09:03:32;51.80;;;25.65;;
21274;SDS011;36472;52.170;20.884;2023-03-03T09:06:02;56.67;;;26.13;;
21274;SDS011;36472;52.170;20.884;2023-03-03T09:08:32;56.75;;;28.13;;
21274;SDS011;36472;52.170;20.884;2023-03-03T09:11:02;51.97;;;26.58;;
21274;SDS011;36472;52.170;20.884;2023-03-03T09:13:37;56.25;;;24.52;;
21274;SDS011;36472;52.170;20.884;2023-03-03T09:16:09;54.13;;;27.08;;
21274;SDS011;36472;52.170;20.884;2023-03-03T09:18:41;54.63;;;27.35;;
21274;SDS011;36472;52.170;20.884;2023-03-03T09:21:20;56.65;;;25.88;;
21274;SDS011;36472;52.170;20.884;2023-03-03T09:23:54;51.83;;;25.65;;
21274;SDS011;36472;52.170;20.884;2023-03-03T09:26:29;49.28;;;24.63;;
21274;SDS011;36472;52.170;20.884;2023-03-03T09:29:18;50.35;;;25.70;;
21274;SDS011;36472;52.170;20.884;2023-03-03T09:31:55;52.40;;;25.73;;
21274;SDS011;36472;52.170;20.884;2023-03-03T09:34:33;49.85;;;25.13;;
21274;SDS011;36472;52.170;20.884;2023-03-03T09:37:14;48.67;;;25.77;;
21274;SDS011;36472;52.170;20.884;2023-03-03T09:39:51;51.53;;;26.67;;
21274;SDS011;36472;52.170;20.884;2023-03-03T09:42:36;49.38;;;25.10;;
21274;SDS011;36472;52.170;20.884;2023-03-03T09:45:35;51.53;;;24.35;;
21274;SDS011;36472;52.170;20.884;2023-03-03T09:54:35;54.53;;;25.90;;
21274;SDS011;36472;52.170;20.884;2023-03-03T09:57:27;56.63;;;26.30;;
21274;SDS011;36472;52.170;20.884;2023-03-03T10:00:38;54.95;;;26.35;;
21274;SDS011;36472;52.170;20.884;2023-03-03T10:06:27;59.33;;;26.90;;
21274;SDS011;36472;52.170;20.884;2023-03-03T10:09:09;55.20;;;25.75;;
21274;SDS011;36472;52.170;20.884;2023-03-03T10:12:11;52.90;;;25.45;;
21274;SDS011;36472;52.170;20.884;2023-03-03T10:17:49;55.60;;;25.30;;
21274;SDS011;36472;52.170;20.884;2023-03-03T10:20:25;58.80;;;27.92;;
21274;SDS011;36472;52.170;20.884;2023-03-03T10:23:20;57.83;;;27.63;;
21274;SDS011;36472;52.170;20.884;2023-03-03T10:26:10;65.25;;;30.83;;
21274;SDS011;36472;52.170;20.884;2023-03-03T10:29:16;63.80;;;28.33;;
21274;SDS011;36472;52.170;20.884;2023-03-03T10:32:05;68.68;;;30.88;;
21274;SDS011;36472;52.170;20.884;2023-03-03T10:38:37;56.78;;;27.92;;
21274;SDS011;36472;52.170;20.884;2023-03-03T10:41:25;57.15;;;27.45;;
21274;SDS011;36472;52.170;20.884;2023-03-03T10:44:17;56.85;;;27.20;;
21274;SDS011;36472;52.170;20.884;2023-03-03T10:50:20;55.40;;;26.40;;
21274;SDS011;36472;52.170;20.884;2023-03-03T10:53:06;58.72;;;27.48;;
21274;SDS011;36472;52.170;20.884;2023-03-03T10:55:59;62.03;;;29.27;;
21274;SDS011;36472;52.170;20.884;2023-03-03T10:58:52;63.28;;;27.90;;
21274;SDS011;36472;52.170;20.884;2023-03-03T11:01:44;57.00;;;26.92;;
21274;SDS011;36472;52.170;20.884;2023-03-03T11:04:24;54.30;;;26.50;;
21274;SDS011;36472;52.170;20.884;2023-03-03T11:07:18;52.40;;;24.98;;
21274;SDS011;36472;52.170;20.884;2023-03-03T11:10:00;52.63;;;24.70;;
21274;SDS011;36472;52.170;20.884;2023-03-03T11:12:48;49.85;;;23.80;;
21274;SDS011;36472;52.170;20.884;2023-03-03T11:15:44;47.03;;;23.92;;
21274;SDS011;36472;52.170;20.884;2023-03-03T11:18:32;48.35;;;23.50;;
21274;SDS011;36472;52.170;20.884;2023-03-03T11:21:18;45.08;;;23.08;;
21274;SDS011;36472;52.170;20.884;2023-03-03T11:23:59;42.22;;;22.38;;
21274;SDS011;36472;52.170;20.884;2023-03-03T11:26:58;40.92;;;22.52;;
21274;SDS011;36472;52.170;20.884;2023-03-03T11:29:49;40.15;;;20.10;;
21274;SDS011;36472;52.170;20.884;2023-03-03T11:32:37;37.67;;;19.58;;
21274;SDS011;36472;52.170;20.884;2023-03-03T11:35:19;37.58;;;20.10;;
21274;SDS011;36472;52.170;20.884;2023-03-03T11:37:58;36.38;;;20.20;;
21274;SDS011;36472;52.170;20.884;2023-03-03T11:40:47;37.22;;;18.73;;
21274;SDS011;36472;52.170;20.884;2023-03-03T11:43:24;34.72;;;17.98;;
21274;SDS011;36472;52.170;20.884;2023-03-03T11:46:04;35.85;;;18.05;;
21274;SDS011;36472;52.170;20.884;2023-03-03T11:48:41;35.88;;;18.60;;
21274;SDS011;36472;52.170;20.884;2023-03-03T11:51:22;31.15;;;18.75;;
21274;SDS011;36472;52.170;20.884;2023-03-03T11:54:07;35.63;;;18.65;;
21274;SDS011;36472;52.170;20.884;2023-03-03T11:56:46;33.27;;;19.10;;
21274;SDS011;36472;52.170;20.884;2023-03-03T11:59:25;32.13;;;18.83;;
21274;SDS011;36472;52.170;20.884;2023-03-03T12:02:32;44.13;;;22.83;;
21274;SDS011;36472;52.170;20.884;2023-03-03T12:05:49;41.63;;;21.85;;
21274;SDS011;36472;52.170;20.884;2023-03-03T12:11:38;48.17;;;25.47;;
21274;SDS011;36472;52.170;20.884;2023-03-03T12:14:22;45.05;;;24.40;;
21274;SDS011;36472;52.170;20.884;2023-03-03T12:17:20;42.45;;;21.55;;
21274;SDS011;36472;52.170;20.884;2023-03-03T12:20:12;38.58;;;22.15;;
21274;SDS011;36472;52.170;20.884;2023-03-03T12:22:55;35.85;;;20.40;;
21274;SDS011;36472;52.170;20.884;2023-03-03T12:26:02;35.45;;;19.83;;
21274;SDS011;36472;52.170;20.884;2023-03-03T12:28:39;44.15;;;22.45;;
21274;SDS011;36472;52.170;20.884;2023-03-03T12:31:22;38.25;;;20.17;;
21274;SDS011;36472;52.170;20.884;2023-03-03T12:34:13;34.33;;;18.92;;
21274;SDS011;36472;52.170;20.884;2023-03-03T12:36:54;37.53;;;20.92;;
21274;SDS011;36472;52.170;20.884;2023-03-03T12:39:45;39.40;;;20.17;;
21274;SDS011;36472;52.170;20.884;2023-03-03T12:42:33;35.90;;;18.63;;
21274;SDS011;36472;52.170;20.884;2023-03-03T12:45:32;38.67;;;19.43;;
21274;SDS011;36472;52.170;20.884;2023-03-03T12:48:15;37.10;;;20.30;;
21274;SDS011;36472;52.170;20.884;2023-03-03T12:50:51;36.47;;;17.97;;
21274;SDS011;36472;52.170;20.884;2023-03-03T12:53:37;34.92;;;19.33;;
21274;SDS011;36472;52.170;20.884;2023-03-03T12:56:21;37.42;;;18.67;;
21274;SDS011;36472;52.170;20.884;2023-03-03T12:59:05;33.17;;;17.47;;
21274;SDS011;36472;52.170;20.884;2023-03-03T13:01:47;35.08;;;18.50;;
21274;SDS011;36472;52.170;20.884;2023-03-03T13:04:34;36.70;;;20.58;;
21274;SDS011;36472;52.170;20.884;2023-03-03T13:07:13;33.90;;;18.73;;
21274;SDS011;36472;52.170;20.884;2023-03-03T13:09:58;33.35;;;18.75;;
21274;SDS011;36472;52.170;20.884;2023-03-03T13:12:42;36.13;;;20.10;;
21274;SDS011;36472;52.170;20.884;2023-03-03T13:15:20;38.13;;;20.20;;
21274;SDS011;36472;52.170;20.884;2023-03-03T13:18:03;34.13;;;18.48;;
21274;SDS011;36472;52.170;20.884;2023-03-03T13:20:49;34.58;;;19.92;;
21274;SDS011;36472;52.170;20.884;2023-03-03T13:23:31;33.70;;;19.27;;
21274;SDS011;36472;52.170;20.884;2023-03-03T13:26:16;36.42;;;19.02;;
21274;SDS011;36472;52.170;20.884;2023-03-03T13:28:57;34.55;;;18.80;;
21274;SDS011;36472;52.170;20.884;2023-03-03T13:31:37;34.05;;;18.75;;
21274;SDS011;36472;52.170;20.884;2023-03-03T13:34:12;30.45;;;17.92;;
21274;SDS011;36472;52.170;20.884;2023-03-03T13:36:58;30.70;;;16.13;;
21274;SDS011;36472;52.170;20.884;2023-03-03T13:39:42;36.97;;;18.05;;
21274;SDS011;36472;52.170;20.884;2023-03-03T13:42:26;32.53;;;17.52;;
21274;SDS011;36472;52.170;20.884;2023-03-03T13:45:05;33.38;;;17.63;;
21274;SDS011;36472;52.170;20.884;2023-03-03T13:47:49;34.33;;;18.58;;
21274;SDS011;36472;52.170;20.884;2023-03-03T13:50:35;33.63;;;17.83;;
21274;SDS011;36472;52.170;20.884;2023-03-03T13:53:20;35.60;;;17.97;;
21274;SDS011;36472;52.170;20.884;2023-03-03T13:56:10;33.25;;;17.67;;
21274;SDS011;36472;52.170;20.884;2023-03-03T13:59:01;37.63;;;19.35;;
21274;SDS011;36472;52.170;20.884;2023-03-03T14:01:47;38.30;;;20.85;;
21274;SDS011;36472;52.170;20.884;2023-03-03T14:04:31;38.15;;;19.95;;
21274;SDS011;36472;52.170;20.884;2023-03-03T14:07:19;40.10;;;20.48;;
21274;SDS011;36472;52.170;20.884;2023-03-03T14:09:58;38.08;;;20.02;;
21274;SDS011;36472;52.170;20.884;2023-03-03T14:12:37;37.88;;;18.67;;
21274;SDS011;36472;52.170;20.884;2023-03-03T14:15:16;35.75;;;19.15;;
21274;SDS011;36472;52.170;20.884;2023-03-03T14:18:02;34.72;;;18.05;;
21274;SDS011;36472;52.170;20.884;2023-03-03T14:20:52;33.67;;;17.95;;
21274;SDS011;36472;52.170;20.884;2023-03-03T14:23:25;37.47;;;18.95;;
21274;SDS011;36472;52.170;20.884;2023-03-03T14:26:05;37.20;;;19.23;;
21274;SDS011;36472;52.170;20.884;2023-03-03T14:28:37;35.40;;;17.75;;
21274;SDS011;36472;52.170;20.884;2023-03-03T14:31:14;39.25;;;19.75;;
21274;SDS011;36472;52.170;20.884;2023-03-03T14:33:58;36.90;;;19.05;;
21274;SDS011;36472;52.170;20.884;2023-03-03T14:36:41;36.95;;;19.15;;
21274;SDS011;36472;52.170;20.884;2023-03-03T14:39:24;37.50;;;20.00;;
21274;SDS011;36472;52.170;20.884;2023-03-03T14:42:00;34.40;;;19.23;;
21274;SDS011;36472;52.170;20.884;2023-03-03T14:44:47;34.78;;;18.65;;
21274;SDS011;36472;52.170;20.884;2023-03-03T14:47:22;40.15;;;20.80;;
21274;SDS011;36472;52.170;20.884;2023-03-03T14:49:53;37.13;;;19.60;;
21274;SDS011;36472;52.170;20.884;2023-03-03T14:52:28;40.33;;;20.83;;
21274;SDS011;36472;52.170;20.884;2023-03-03T14:55:01;37.92;;;19.13;;
21274;SDS011;36472;52.170;20.884;2023-03-03T14:57:58;34.22;;;18.83;;
21274;SDS011;36472;52.170;20.884;2023-03-03T15:00:31;39.65;;;19.63;;
21274;SDS011;36472;52.170;20.884;2023-03-03T15:03:04;36.17;;;18.60;;
21274;SDS011;36472;52.170;20.884;2023-03-03T15:05:50;36.20;;;19.00;;
21274;SDS011;36472;52.170;20.884;2023-03-03T15:08:26;33.70;;;17.95;;
21274;SDS011;36472;52.170;20.884;2023-03-03T15:11:17;33.47;;;17.17;;
21274;SDS011;36472;52.170;20.884;2023-03-03T15:14:03;38.92;;;19.48;;
21274;SDS011;36472;52.170;20.884;2023-03-03T15:16:41;35.55;;;19.33;;
21274;SDS011;36472;52.170;20.884;2023-03-03T15:19:17;37.22;;;19.88;;
21274;SDS011;36472;52.170;20.884;2023-03-03T15:22:20;32.78;;;18.13;;
21274;SDS011;36472;52.170;20.884;2023-03-03T15:25:11;35.92;;;19.75;;
21274;SDS011;36472;52.170;20.884;2023-03-03T15:28:18;43.53;;;20.90;;
21274;SDS011;36472;52.170;20.884;2023-03-03T15:31:08;42.28;;;19.73;;
21274;SDS011;36472;52.170;20.884;2023-03-03T15:34:01;40.75;;;19.55;;
21274;SDS011;36472;52.170;20.884;2023-03-03T15:36:46;32.58;;;17.13;;
21274;SDS011;36472;52.170;20.884;2023-03-03T15:39:25;34.90;;;18.85;;
21274;SDS011;36472;52.170;20.884;2023-03-03T15:42:09;33.00;;;17.58;;
21274;SDS011;36472;52.170;20.884;2023-03-03T15:44:45;38.33;;;19.48;;
21274;SDS011;36472;52.170;20.884;2023-03-03T15:47:34;33.90;;;18.75;;
21274;SDS011;36472;52.170;20.884;2023-03-03T15:50:34;39.33;;;20.60;;
21274;SDS011;36472;52.170;20.884;2023-03-03T15:53:24;39.50;;;19.73;;
21274;SDS011;36472;52.170;20.884;2023-03-03T15:56:13;34.70;;;19.63;;
21274;SDS011;36472;52.170;20.884;2023-03-03T15:59:05;36.25;;;20.00;;
21274;SDS011;36472;52.170;20.884;2023-03-03T16:02:09;39.55;;;20.85;;
21274;SDS011;36472;52.170;20.884;2023-03-03T16:04:47;41.55;;;20.13;;
21274;SDS011;36472;52.170;20.884;2023-03-03T16:07:34;37.80;;;19.48;;